Time;durP1;ratioP1;P1;durP2;ratioP2;P2;SDS_P1;SDS_P2;PMS_P1;PMS_P2;Temp;Humidity;BMP_temperature;BMP_pressure;BME280_temperature;BME280_humidity;BME280_pressure;Samples;Min_cycle;Max_cycle;Signal;HPM_P1;HPM_P2
2022/07/12 00:00:25;;;;;;;7.22;3.70;;;19.50;80.00;;;;;;4822324;29;20065;-81
2022/07/12 00:02:52;;;;;;;6.40;3.60;;;19.40;80.10;;;;;;4820033;29;20050;-78
2022/07/12 00:05:20;;;;;;;7.50;4.18;;;19.40;80.60;;;;;;4817331;29;20050;-84
2022/07/12 00:07:50;;;;;;;7.18;3.30;;;19.40;80.60;;;;;;4810138;29;20127;-76
2022/07/12 00:10:31;;;;;;;9.02;3.67;;;19.30;81.10;;;;;;4821120;29;20478;-75
2022/07/12 00:13:06;;;;;;;5.60;3.58;;;19.30;81.30;;;;;;4820800;29;20385;-82
2022/07/12 00:15:39;;;;;;;7.30;2.80;;;19.30;80.80;;;;;;4824711;29;20042;-84
2022/07/12 00:18:10;;;;;;;6.65;3.25;;;19.30;80.50;;;;;;4824556;29;20058;-80
2022/07/12 00:20:57;;;;;;;8.80;2.80;;;19.40;81.30;;;;;;4823668;29;20068;-83
2022/07/12 00:23:27;;;;;;;6.82;3.35;;;18.80;83.60;;;;;;4822085;29;20122;-76
2022/07/12 00:25:54;;;;;;;6.60;3.20;;;18.80;85.30;;;;;;4815535;29;20046;-82
2022/07/12 00:28:22;;;;;;;5.00;2.92;;;18.70;86.50;;;;;;4813951;29;20046;-82
2022/07/12 00:30:49;;;;;;;4.97;2.75;;;18.70;87.10;;;;;;4821097;29;20049;-78
2022/07/12 00:33:16;;;;;;;5.32;2.65;;;18.50;88.70;;;;;;4822700;29;20142;-82
2022/07/12 00:35:44;;;;;;;10.77;3.25;;;18.30;89.00;;;;;;4823728;29;20054;-82
2022/07/12 00:38:16;;;;;;;6.20;3.53;;;18.10;89.30;;;;;;4822356;29;20058;-81
2022/07/12 00:40:43;;;;;;;4.78;3.03;;;17.90;90.30;;;;;;4823785;29;20126;-84
2022/07/12 00:43:11;;;;;;;7.65;3.03;;;18.00;90.10;;;;;;4808629;29;20058;-76
2022/07/12 00:45:39;;;;;;;5.82;2.70;;;17.50;90.50;;;;;;4808866;29;20053;-83
2022/07/12 00:48:08;;;;;;;11.02;2.80;;;17.80;90.60;;;;;;4808519;29;20065;-78
2022/07/12 00:50:39;;;;;;;4.40;2.97;;;18.10;90.20;;;;;;4793729;29;20061;-76
2022/07/12 00:53:07;;;;;;;4.00;2.33;;;18.20;89.80;;;;;;4793417;29;20057;-76
2022/07/12 00:55:34;;;;;;;4.22;2.75;;;18.10;90.20;;;;;;4838488;29;20047;-82
2022/07/12 00:58:01;;;;;;;3.17;2.33;;;18.20;90.30;;;;;;4808387;29;20109;-76
2022/07/12 01:00:29;;;;;;;7.53;3.30;;;18.10;90.40;;;;;;4796305;29;20133;-77
2022/07/12 01:03:00;;;;;;;9.45;3.40;;;17.90;91.10;;;;;;4823918;29;20050;-81
2022/07/12 01:05:33;;;;;;;4.78;2.75;;;18.00;91.20;;;;;;4823502;29;20047;-77
2022/07/12 01:08:01;;;;;;;5.55;3.08;;;18.20;90.90;;;;;;4823956;29;20084;-84
2022/07/12 01:10:31;;;;;;;4.95;2.75;;;18.00;91.50;;;;;;4823925;29;20054;-76
2022/07/12 01:13:00;;;;;;;6.25;2.60;;;17.80;91.00;;;;;;4808484;29;20131;-84
2022/07/12 01:15:31;;;;;;;4.65;2.78;;;17.80;91.20;;;;;;4808199;29;20050;-82
2022/07/12 01:17:59;;;;;;;6.93;2.30;;;18.00;91.40;;;;;;4794016;29;20115;-85
2022/07/12 01:20:27;;;;;;;4.32;2.72;;;18.20;91.80;;;;;;4824518;29;20074;-85
2022/07/12 01:22:59;;;;;;;5.32;2.70;;;18.10;93.00;;;;;;4808800;29;20054;-83
2022/07/12 01:25:28;;;;;;;4.25;2.60;;;17.80;94.30;;;;;;4824068;29;20046;-81
2022/07/12 01:27:58;;;;;;;6.18;3.13;;;17.90;94.60;;;;;;4823938;29;20050;-87
2022/07/12 01:30:26;;;;;;;6.20;2.67;;;18.00;94.60;;;;;;4808301;29;20038;-80
2022/07/12 01:32:54;;;;;;;4.20;2.72;;;17.70;96.30;;;;;;4808893;29;20062;-86
2022/07/12 01:35:22;;;;;;;5.65;2.97;;;17.80;97.20;;;;;;4808868;29;20050;-82
2022/07/12 01:37:50;;;;;;;4.78;2.90;;;17.70;98.30;;;;;;4824434;29;20050;-83
2022/07/12 01:40:18;;;;;;;5.32;2.92;;;17.60;99.60;;;;;;4824012;29;20058;-84
2022/07/12 01:42:46;;;;;;;4.50;2.85;;;17.60;99.90;;;;;;4824381;29;20086;-77
2022/07/12 01:45:14;;;;;;;6.72;3.50;;;17.60;99.90;;;;;;4824024;29;20125;-79
2022/07/12 01:47:41;;;;;;;5.75;2.70;;;17.60;99.90;;;;;;4807607;29;20121;-77
2022/07/12 01:50:10;;;;;;;6.20;2.80;;;17.30;99.90;;;;;;4822843;29;20055;-78
2022/07/12 01:52:41;;;;;;;7.05;3.22;;;17.50;99.90;;;;;;4822456;29;20175;-77
2022/07/12 01:55:11;;;;;;;8.73;3.13;;;17.60;99.90;;;;;;4823854;29;20069;-74
2022/07/12 01:57:41;;;;;;;5.80;3.10;;;17.50;99.90;;;;;;4823998;29;20046;-82
2022/07/12 02:00:09;;;;;;;8.40;2.95;;;17.40;99.90;;;;;;4822943;29;20522;-82
2022/07/12 02:02:38;;;;;;;9.93;2.88;;;17.30;99.90;;;;;;4823500;29;20042;-82
2022/07/12 02:05:05;;;;;;;6.82;3.40;;;17.50;99.90;;;;;;4822995;29;20054;-82
2022/07/12 02:07:33;;;;;;;5.65;3.42;;;17.40;99.90;;;;;;4823016;29;20102;-82
2022/07/12 02:10:00;;;;;;;5.05;3.30;;;17.30;99.90;;;;;;4823894;29;20085;-83
2022/07/12 02:12:28;;;;;;;5.30;2.80;;;17.50;99.90;;;;;;4823792;29;20042;-80
2022/07/12 02:14:55;;;;;;;9.30;3.08;;;17.60;99.90;;;;;;4837740;29;20055;-82
2022/07/12 02:17:22;;;;;;;6.80;3.78;;;17.40;99.90;;;;;;4821947;29;20047;-78
2022/07/12 02:19:50;;;;;;;5.95;3.40;;;17.50;99.90;;;;;;4822665;29;20460;-82
2022/07/12 02:22:18;;;;;;;6.05;3.75;;;17.60;99.90;;;;;;4837121;29;20038;-84
2022/07/12 02:24:45;;;;;;;5.30;3.30;;;17.50;99.90;;;;;;4807094;29;20080;-80
2022/07/12 02:27:12;;;;;;;4.85;3.08;;;17.40;99.90;;;;;;4819166;29;20055;-82
2022/07/12 02:29:41;;;;;;;5.88;3.08;;;17.50;99.90;;;;;;4805106;29;20116;-82
2022/07/12 02:32:08;;;;;;;4.18;2.50;;;17.40;99.90;;;;;;4788810;29;20115;-82
2022/07/12 02:34:36;;;;;;;4.22;3.08;;;17.50;99.90;;;;;;4804837;29;20146;-77
2022/07/12 02:37:03;;;;;;;5.43;3.47;;;17.40;99.90;;;;;;4804890;29;20042;-81
2022/07/12 02:39:30;;;;;;;3.75;2.70;;;17.20;99.90;;;;;;4805009;29;20050;-80
2022/07/12 02:41:58;;;;;;;6.78;2.75;;;17.20;99.90;;;;;;4804488;29;20058;-78
2022/07/12 02:44:25;;;;;;;7.20;2.85;;;17.10;99.90;;;;;;4804813;29;20050;-83
2022/07/12 02:46:52;;;;;;;5.57;2.95;;;16.90;99.90;;;;;;4804707;29;20065;-82
2022/07/12 02:49:20;;;;;;;5.00;2.70;;;17.10;99.90;;;;;;4788710;29;20061;-82
2022/07/12 02:51:47;;;;;;;6.03;3.05;;;17.10;99.90;;;;;;4804764;29;20451;-82
2022/07/12 02:54:15;;;;;;;4.20;2.70;;;16.80;99.90;;;;;;4804982;29;20415;-83
2022/07/12 02:56:42;;;;;;;6.00;2.83;;;17.00;99.90;;;;;;4818747;29;20059;-81
2022/07/12 02:59:09;;;;;;;6.50;3.00;;;16.60;99.90;;;;;;4804863;29;20058;-80
2022/07/12 03:01:36;;;;;;;4.93;3.20;;;16.80;99.90;;;;;;4788634;29;20046;-84
2022/07/12 03:04:04;;;;;;;6.75;3.35;;;16.40;99.90;;;;;;4818766;29;20055;-80
2022/07/12 03:06:31;;;;;;;4.63;3.03;;;16.50;99.90;;;;;;4804863;29;20051;-81
2022/07/12 03:08:59;;;;;;;4.60;2.88;;;16.80;99.90;;;;;;4803257;29;20058;-78
2022/07/12 03:11:45;;;;;;;5.45;2.78;;;16.90;99.90;;;;;;4815971;29;20053;-81
2022/07/12 03:14:12;;;;;;;5.35;3.50;;;16.90;99.90;;;;;;4803030;29;20065;-81
2022/07/12 03:16:39;;;;;;;5.95;3.83;;;16.90;99.90;;;;;;4804409;29;20434;-82
2022/07/12 03:19:07;;;;;;;5.53;3.65;;;16.80;99.90;;;;;;4805437;29;20412;-82
2022/07/12 03:21:34;;;;;;;5.00;3.50;;;16.80;99.90;;;;;;4804368;29;20049;-85
2022/07/12 03:24:01;;;;;;;6.47;3.60;;;16.70;99.90;;;;;;4803981;29;20108;-86
2022/07/12 03:26:29;;;;;;;6.05;3.40;;;16.90;99.90;;;;;;4805079;29;20369;-86
2022/07/12 03:28:56;;;;;;;6.20;3.20;;;17.00;99.90;;;;;;4804828;29;20050;-85
2022/07/12 03:31:24;;;;;;;6.05;3.45;;;17.00;99.90;;;;;;4804013;29;20050;-80
2022/07/12 03:33:51;;;;;;;5.32;3.08;;;16.90;99.90;;;;;;4788582;29;20058;-78
2022/07/12 03:36:19;;;;;;;11.65;4.05;;;16.70;99.90;;;;;;4804450;29;20046;-80
2022/07/12 03:38:46;;;;;;;4.65;2.80;;;16.90;99.90;;;;;;4789614;29;20055;-77
2022/07/12 03:41:14;;;;;;;6.95;3.00;;;16.90;99.90;;;;;;4807771;29;20043;-78
2022/07/12 03:43:41;;;;;;;5.80;3.25;;;16.80;99.90;;;;;;4808021;29;20058;-79
2022/07/12 03:46:08;;;;;;;5.95;3.33;;;16.60;99.90;;;;;;4791315;29;20051;-77
2022/07/12 03:48:36;;;;;;;6.22;3.00;;;16.60;99.90;;;;;;4807798;29;20047;-77
2022/07/12 03:51:03;;;;;;;9.40;3.20;;;16.50;99.90;;;;;;4807312;29;20051;-82
2022/07/12 03:53:30;;;;;;;5.75;2.92;;;16.60;99.90;;;;;;4807943;29;20099;-78
2022/07/12 03:55:58;;;;;;;8.40;3.08;;;16.80;99.90;;;;;;4807892;29;20058;-82
2022/07/12 03:58:25;;;;;;;6.13;2.90;;;17.00;99.90;;;;;;4806411;29;20047;-82
2022/07/12 04:00:53;;;;;;;6.88;3.03;;;16.90;99.90;;;;;;4807886;29;20046;-81
2022/07/12 04:03:20;;;;;;;3.92;2.78;;;17.00;99.90;;;;;;4807829;29;20047;-80
2022/07/12 04:05:47;;;;;;;8.50;3.47;;;17.30;99.90;;;;;;4807178;29;20484;-81
2022/07/12 04:08:16;;;;;;;5.15;3.10;;;17.30;99.90;;;;;;4791624;29;20058;-79
2022/07/12 04:10:43;;;;;;;9.85;4.10;;;17.40;99.90;;;;;;4807154;29;20066;-81
2022/07/12 04:13:10;;;;;;;10.68;4.70;;;17.50;99.90;;;;;;4807083;29;20078;-81
2022/07/12 04:15:38;;;;;;;10.38;4.38;;;17.50;99.90;;;;;;4806233;29;20491;-80
2022/07/12 04:18:05;;;;;;;6.85;3.90;;;17.40;99.90;;;;;;4807276;29;20078;-81
2022/07/12 04:20:33;;;;;;;10.70;3.85;;;17.50;99.90;;;;;;4807274;29;20500;-78
2022/07/12 04:23:00;;;;;;;6.03;3.58;;;17.70;99.90;;;;;;4791370;29;20057;-78
2022/07/12 04:25:28;;;;;;;7.30;3.92;;;17.60;99.90;;;;;;4806792;29;20061;-79
2022/07/12 04:27:55;;;;;;;9.35;4.47;;;17.70;99.90;;;;;;4805819;29;20096;-80
2022/07/12 04:30:22;;;;;;;10.02;4.88;;;17.60;99.90;;;;;;4807166;29;20059;-81
2022/07/12 04:32:50;;;;;;;10.38;5.30;;;17.70;99.90;;;;;;4807370;29;20439;-81
2022/07/12 04:35:17;;;;;;;9.82;4.85;;;17.80;99.90;;;;;;4808035;29;20046;-86
2022/07/12 04:37:45;;;;;;;8.02;3.78;;;17.70;99.90;;;;;;4807055;29;20127;-81
2022/07/12 04:40:12;;;;;;;10.73;3.90;;;17.60;99.90;;;;;;4807819;29;20047;-82
2022/07/12 04:42:40;;;;;;;13.23;4.20;;;17.60;99.90;;;;;;4809042;29;20511;-89
2022/07/12 04:45:07;;;;;;;6.90;3.92;;;17.20;99.90;;;;;;4808121;29;20092;-79
2022/07/12 04:47:36;;;;;;;6.45;3.80;;;17.40;99.90;;;;;;4806522;29;20051;-76
2022/07/12 04:50:07;;;;;;;14.85;4.15;;;17.60;99.90;;;;;;4806784;29;20477;-80
2022/07/12 04:52:35;;;;;;;9.02;3.72;;;17.50;99.90;;;;;;4806682;29;20050;-77
2022/07/12 04:55:03;;;;;;;7.65;3.53;;;17.50;99.90;;;;;;4806459;29;20046;-79
2022/07/12 04:57:30;;;;;;;5.57;3.17;;;17.60;99.90;;;;;;4790948;29;20043;-83
2022/07/12 04:59:57;;;;;;;7.07;3.30;;;17.60;99.90;;;;;;4791088;29;20055;-80
2022/07/12 05:02:25;;;;;;;9.13;3.97;;;17.60;99.90;;;;;;4806243;29;20076;-83
2022/07/12 05:04:53;;;;;;;7.43;3.50;;;17.50;99.90;;;;;;4790526;29;20051;-79
2022/07/12 05:07:20;;;;;;;6.88;3.38;;;17.60;99.90;;;;;;4790488;29;20050;-80
2022/07/12 05:09:47;;;;;;;42.75;26.08;;;17.70;99.90;;;;;;4790075;29;20440;-78
2022/07/12 05:12:15;;;;;;;94.22;57.95;;;17.50;99.90;;;;;;4789720;29;20051;-86
2022/07/12 05:14:42;;;;;;;124.63;74.72;;;17.60;99.90;;;;;;4806322;29;20058;-81
2022/07/12 05:17:10;;;;;;;72.03;47.05;;;17.70;99.90;;;;;;4805726;29;20137;-79
2022/07/12 05:19:38;;;;;;;19.48;11.00;;;17.70;99.90;;;;;;4805081;29;20108;-82
2022/07/12 05:22:05;;;;;;;32.38;19.85;;;17.60;99.90;;;;;;4806303;29;20050;-85
2022/07/12 05:24:32;;;;;;;31.83;18.95;;;17.80;99.90;;;;;;4806812;29;20058;-83
2022/07/12 05:27:00;;;;;;;37.30;23.98;;;17.70;99.90;;;;;;4806347;29;20054;-84
2022/07/12 05:29:27;;;;;;;11.82;6.18;;;17.80;99.90;;;;;;4806382;29;20050;-81
2022/07/12 05:31:57;;;;;;;10.05;5.85;;;17.70;99.90;;;;;;4806150;29;20416;-78
2022/07/12 05:34:25;;;;;;;8.48;5.03;;;17.60;99.90;;;;;;4819511;29;20050;-81
2022/07/12 05:36:52;;;;;;;9.77;5.35;;;17.60;99.90;;;;;;4805776;29;20476;-83
2022/07/12 05:39:19;;;;;;;13.90;4.70;;;17.80;99.90;;;;;;4806008;29;20043;-83
2022/07/12 05:41:47;;;;;;;11.30;4.10;;;17.80;99.90;;;;;;4804850;29;20051;-81
2022/07/12 05:44:18;;;;;;;6.82;4.00;;;17.60;99.90;;;;;;4804645;29;20058;-77
2022/07/12 05:46:46;;;;;;;10.32;3.92;;;17.50;99.90;;;;;;4805761;29;20042;-84
2022/07/12 05:49:14;;;;;;;7.72;3.97;;;17.60;99.90;;;;;;4789900;29;20050;-87
2022/07/12 05:54:27;;;;;;;9.40;4.25;;;17.90;99.90;;;;;;4805905;29;20073;-82
2022/07/12 05:56:54;;;;;;;13.20;4.57;;;18.00;99.90;;;;;;4804330;29;20058;-83
2022/07/12 05:59:21;;;;;;;11.75;4.45;;;18.30;99.90;;;;;;4805111;29;20522;-83
2022/07/12 06:01:49;;;;;;;12.70;4.88;;;18.50;99.90;;;;;;4804259;29;20050;-78
2022/07/12 06:04:16;;;;;;;9.27;4.28;;;18.60;99.90;;;;;;4789308;29;20062;-79
2022/07/12 06:06:44;;;;;;;14.23;5.00;;;18.80;99.90;;;;;;4805053;29;20051;-81
2022/07/12 06:09:12;;;;;;;11.00;5.43;;;18.80;99.50;;;;;;4787920;29;20047;-78
2022/07/12 06:11:39;;;;;;;12.48;4.95;;;18.70;99.90;;;;;;4803347;29;20058;-84
2022/07/12 06:14:06;;;;;;;10.40;5.13;;;18.80;99.90;;;;;;4817600;29;20054;-76
2022/07/12 06:16:34;;;;;;;12.88;4.72;;;18.80;99.90;;;;;;4802202;29;20476;-76
2022/07/12 06:19:01;;;;;;;10.23;4.05;;;18.90;99.70;;;;;;4803448;29;20105;-76
2022/07/12 06:21:29;;;;;;;11.23;4.50;;;19.00;99.10;;;;;;4802740;29;20108;-76
2022/07/12 06:23:56;;;;;;;9.57;3.95;;;19.00;98.80;;;;;;4806968;29;20043;-78
2022/07/12 06:26:24;;;;;;;12.55;3.90;;;19.10;98.40;;;;;;4812593;29;20048;-77
2022/07/12 06:28:51;;;;;;;12.07;3.70;;;19.00;98.40;;;;;;4811127;29;20045;-77
2022/07/12 06:31:19;;;;;;;10.60;3.80;;;19.10;98.20;;;;;;4807448;29;20062;-76
2022/07/12 06:33:47;;;;;;;8.93;4.03;;;19.00;98.30;;;;;;4811729;29;20307;-82
2022/07/12 06:36:14;;;;;;;15.70;3.72;;;19.10;98.40;;;;;;4813006;29;20042;-76
2022/07/12 06:38:42;;;;;;;7.90;4.10;;;19.30;97.80;;;;;;4812602;29;20038;-78
2022/07/12 06:41:16;;;;;;;6.78;3.15;;;19.40;97.40;;;;;;4823366;29;20109;-77
2022/07/12 06:43:43;;;;;;;5.65;3.10;;;19.50;97.10;;;;;;4812145;29;20129;-76
2022/07/12 06:46:11;;;;;;;9.38;3.40;;;19.50;96.90;;;;;;4782690;29;20404;-78
2022/07/12 06:48:38;;;;;;;6.32;3.40;;;19.50;96.60;;;;;;4812347;29;20592;-80
2022/07/12 06:51:05;;;;;;;7.30;3.40;;;19.60;96.60;;;;;;4811669;29;20050;-83
2022/07/12 06:53:33;;;;;;;7.90;3.60;;;19.80;96.60;;;;;;4808249;29;20063;-74
2022/07/12 06:56:00;;;;;;;12.55;3.95;;;19.80;95.90;;;;;;4826414;29;20380;-82
2022/07/12 06:58:28;;;;;;;11.10;3.42;;;20.00;96.00;;;;;;4812477;29;20058;-77
2022/07/12 07:00:55;;;;;;;11.93;3.22;;;20.00;95.10;;;;;;4780620;29;20042;-82
2022/07/12 07:03:23;;;;;;;6.82;3.53;;;19.90;95.80;;;;;;4810852;29;20050;-82
2022/07/12 07:05:51;;;;;;;6.72;3.17;;;20.00;95.70;;;;;;4813421;29;20060;-75
2022/07/12 07:08:18;;;;;;;9.20;3.20;;;20.10;94.70;;;;;;4814266;29;20051;-80
2022/07/12 07:10:45;;;;;;;5.45;2.58;;;20.20;94.10;;;;;;4810042;29;20054;-84
2022/07/12 07:13:13;;;;;;;7.43;3.28;;;19.90;93.70;;;;;;4811083;29;20058;-82
2022/07/12 07:15:41;;;;;;;6.78;2.92;;;20.00;94.40;;;;;;4818014;29;20491;-84
2022/07/12 07:18:08;;;;;;;9.93;3.75;;;20.30;94.90;;;;;;4815134;29;20050;-83
2022/07/12 07:20:36;;;;;;;5.65;2.97;;;20.30;93.30;;;;;;4798840;29;20046;-77
2022/07/12 07:23:03;;;;;;;7.35;3.10;;;20.30;94.10;;;;;;4815349;29;20057;-76
2022/07/12 07:25:31;;;;;;;6.05;3.25;;;20.40;94.30;;;;;;4829961;29;20046;-77
2022/07/12 07:27:58;;;;;;;7.47;3.10;;;20.60;94.60;;;;;;4827798;29;20389;-74
2022/07/12 07:33:12;;;;;;;11.70;3.80;;;20.60;93.10;;;;;;4816391;29;20044;-84
2022/07/12 07:35:39;;;;;;;8.13;3.42;;;20.70;92.40;;;;;;4813947;29;20051;-80
2022/07/12 07:38:07;;;;;;;8.30;2.80;;;20.80;92.00;;;;;;4815010;29;20047;-85
2022/07/12 07:40:34;;;;;;;7.97;3.15;;;20.80;91.70;;;;;;4816379;29;20383;-75
2022/07/12 07:43:02;;;;;;;9.90;3.20;;;20.70;91.70;;;;;;4813471;29;20138;-84
2022/07/12 07:45:29;;;;;;;10.85;3.10;;;20.80;91.60;;;;;;4814683;29;20392;-85
2022/07/12 07:47:56;;;;;;;6.80;3.08;;;20.90;91.90;;;;;;4816052;29;20031;-81
2022/07/12 07:50:43;;;;;;;10.40;3.80;;;20.90;91.30;;;;;;4814605;29;20050;-84
2022/07/12 07:53:11;;;;;;;11.95;3.17;;;20.90;91.00;;;;;;4814686;29;20076;-76
2022/07/12 07:55:38;;;;;;;9.40;3.20;;;20.90;90.80;;;;;;4799510;29;20042;-82
2022/07/12 07:58:06;;;;;;;7.55;3.38;;;21.10;91.60;;;;;;4816023;29;20420;-82
2022/07/12 08:00:33;;;;;;;9.23;2.97;;;21.10;90.30;;;;;;4811567;29;20047;-78
2022/07/12 08:03:01;;;;;;;11.40;2.90;;;21.10;89.30;;;;;;4815227;29;20042;-75
2022/07/12 08:05:28;;;;;;;5.97;2.70;;;21.10;88.60;;;;;;4816077;29;20054;-79
2022/07/12 08:07:56;;;;;;;5.05;2.25;;;21.20;87.70;;;;;;4814618;29;20415;-81
2022/07/12 08:10:25;;;;;;;6.75;3.17;;;21.30;87.80;;;;;;4814412;29;20336;-80
2022/07/12 08:12:53;;;;;;;11.45;3.45;;;21.50;87.60;;;;;;4827710;29;20074;-75
2022/07/12 08:15:20;;;;;;;6.38;2.63;;;21.50;87.60;;;;;;4814200;29;20411;-78
2022/07/12 08:17:48;;;;;;;6.95;3.05;;;21.30;86.60;;;;;;4814642;29;20485;-83
2022/07/12 08:20:23;;;;;;;8.27;2.50;;;21.50;85.90;;;;;;4807001;29;20407;-77
2022/07/12 08:23:11;;;;;;;5.60;2.42;;;21.50;85.60;;;;;;4807768;29;20046;-77
2022/07/12 08:25:39;;;;;;;9.00;2.80;;;21.50;83.20;;;;;;4807005;29;20109;-77
2022/07/12 08:28:06;;;;;;;8.63;2.85;;;21.50;83.80;;;;;;4806393;29;20046;-78
2022/07/12 08:30:34;;;;;;;9.38;3.05;;;21.60;84.50;;;;;;4807115;29;20454;-84
2022/07/12 08:33:09;;;;;;;5.50;2.28;;;21.60;83.60;;;;;;4805851;29;20050;-84
2022/07/12 08:35:36;;;;;;;7.68;2.90;;;21.70;84.70;;;;;;4806750;29;20066;-82
2022/07/12 08:38:03;;;;;;;8.25;4.20;;;21.90;83.50;;;;;;4807054;29;20043;-74
2022/07/12 08:40:31;;;;;;;13.77;3.63;;;21.90;83.10;;;;;;4808255;29;20055;-80
2022/07/12 08:43:00;;;;;;;7.35;2.58;;;22.00;82.60;;;;;;4808243;29;20050;-80
2022/07/12 08:45:27;;;;;;;8.25;3.13;;;22.10;82.80;;;;;;4824645;29;20522;-79
2022/07/12 08:47:55;;;;;;;9.07;3.53;;;22.20;81.80;;;;;;4794052;29;20122;-88
2022/07/12 08:50:24;;;;;;;8.38;3.00;;;21.90;78.40;;;;;;4825040;29;20057;-80
2022/07/12 08:52:53;;;;;;;5.82;2.70;;;22.00;80.30;;;;;;4825199;29;20385;-81
2022/07/12 08:55:28;;;;;;;8.03;2.40;;;22.10;79.20;;;;;;4808276;29;20778;-78
2022/07/12 08:57:57;;;;;;;8.23;2.55;;;22.20;79.10;;;;;;4824697;29;20050;-76
2022/07/12 09:00:28;;;;;;;6.30;2.60;;;22.20;78.80;;;;;;4793544;29;20046;-83
2022/07/12 09:02:57;;;;;;;7.40;2.78;;;22.30;78.50;;;;;;4824724;29;20051;-80
2022/07/12 09:05:26;;;;;;;6.13;3.23;;;22.30;76.80;;;;;;4808033;29;20050;-77
2022/07/12 09:08:05;;;;;;;10.77;3.88;;;22.40;74.40;;;;;;4808423;29;20074;-81
2022/07/12 09:10:53;;;;;;;8.50;3.03;;;22.50;77.90;;;;;;4808192;29;20062;-80
2022/07/12 09:13:40;;;;;;;12.05;3.50;;;22.60;77.30;;;;;;4823983;29;20474;-80
2022/07/12 09:16:20;;;;;;;6.95;2.92;;;22.70;76.90;;;;;;4817193;29;20420;-78
2022/07/12 09:18:48;;;;;;;9.40;2.60;;;22.90;74.80;;;;;;4816523;29;20412;-75
2022/07/12 09:21:51;;;;;;;6.57;2.80;;;22.70;74.20;;;;;;4823613;29;20133;-80
2022/07/12 09:24:23;;;;;;;9.20;3.10;;;22.20;73.90;;;;;;4824027;29;20452;-75
2022/07/12 09:26:57;;;;;;;9.80;3.30;;;22.10;72.50;;;;;;4824267;29;20078;-75
2022/07/12 09:29:25;;;;;;;7.60;2.50;;;22.10;73.40;;;;;;4829209;29;20039;-79
2022/07/12 09:37:26;;;;;;;5.28;2.70;;;22.70;69.90;;;;;;4804770;29;20054;-73
2022/07/12 09:39:54;;;;;;;4.60;1.98;;;22.80;71.70;;;;;;4806211;29;20053;-73
2022/07/12 09:42:23;;;;;;;5.45;2.22;;;22.50;70.40;;;;;;4803734;29;20050;-76
2022/07/12 09:44:57;;;;;;;5.65;2.05;;;22.80;70.20;;;;;;4805521;29;20047;-79
2022/07/12 09:47:26;;;;;;;4.68;2.05;;;23.10;71.40;;;;;;4790377;29;20407;-82
2022/07/12 09:49:54;;;;;;;8.90;2.17;;;23.30;70.60;;;;;;4805933;29;20065;-81
2022/07/12 09:52:24;;;;;;;8.68;2.80;;;22.80;69.60;;;;;;4805942;29;20039;-88
2022/07/12 09:54:54;;;;;;;10.35;3.50;;;23.10;72.00;;;;;;4789570;29;20070;-78
2022/07/12 09:57:31;;;;;;;5.78;2.17;;;23.40;71.40;;;;;;4774944;29;20062;-83
2022/07/12 10:00:00;;;;;;;5.43;2.25;;;23.60;69.00;;;;;;4819868;29;20408;-82
2022/07/12 10:02:28;;;;;;;7.07;2.50;;;23.90;70.00;;;;;;4805114;29;20099;-81
2022/07/12 10:04:58;;;;;;;6.57;2.17;;;23.90;69.20;;;;;;4806172;29;20595;-83
2022/07/12 10:07:26;;;;;;;4.93;2.05;;;23.70;68.30;;;;;;4809946;29;20042;-87
2022/07/12 10:09:54;;;;;;;5.00;2.13;;;23.80;69.30;;;;;;4814786;29;20053;-83
2022/07/12 10:12:23;;;;;;;7.55;2.40;;;24.20;69.00;;;;;;4823376;29;20047;-84
2022/07/12 10:15:04;;;;;;;6.18;2.55;;;23.90;68.00;;;;;;4810578;29;20050;-77
2022/07/12 10:17:34;;;;;;;7.40;3.63;;;23.70;67.90;;;;;;4771282;29;20062;-83
2022/07/12 10:20:15;;;;;;;5.93;2.20;;;23.60;68.80;;;;;;4810474;29;20042;-80
2022/07/12 10:22:43;;;;;;;8.20;2.70;;;23.80;68.60;;;;;;4800105;29;20158;-84
2022/07/12 10:25:25;;;;;;;7.93;2.75;;;24.10;69.20;;;;;;4815300;29;20052;-86
2022/07/12 10:27:53;;;;;;;5.78;2.50;;;23.90;64.90;;;;;;4785876;30;20654;-78
2022/07/12 10:30:23;;;;;;;4.78;2.20;;;23.70;66.00;;;;;;4787036;30;20489;-80
2022/07/12 10:32:57;;;;;;;8.77;2.20;;;23.80;66.70;;;;;;4793822;29;20039;-87
2022/07/12 10:35:30;;;;;;;8.90;2.33;;;23.80;66.50;;;;;;4774517;29;20055;-79
2022/07/12 10:38:12;;;;;;;5.25;2.75;;;23.90;66.60;;;;;;4817970;29;20156;-80
2022/07/12 10:40:43;;;;;;;5.75;2.05;;;24.00;65.90;;;;;;4823579;29;20050;-78
2022/07/12 10:43:11;;;;;;;5.18;2.00;;;24.00;66.10;;;;;;4806895;29;20046;-78
2022/07/12 10:45:40;;;;;;;6.22;3.33;;;24.30;67.80;;;;;;4822956;29;20103;-76
2022/07/12 10:48:14;;;;;;;4.35;2.05;;;24.50;67.20;;;;;;4813055;29;20054;-84
2022/07/12 10:50:45;;;;;;;6.85;2.10;;;24.80;64.30;;;;;;4803850;29;20047;-84
2022/07/12 10:53:18;;;;;;;9.45;2.05;;;24.50;63.50;;;;;;4803573;29;20073;-80
2022/07/12 10:56:04;;;;;;;3.63;1.55;;;24.20;63.40;;;;;;4805092;29;20565;-84
2022/07/12 10:58:43;;;;;;;7.38;1.83;;;23.90;63.10;;;;;;4804344;29;20488;-86
2022/07/12 11:01:14;;;;;;;4.63;2.10;;;24.00;64.90;;;;;;4804664;29;20054;-80
2022/07/12 11:03:46;;;;;;;5.43;1.98;;;24.40;66.20;;;;;;4805037;29;20097;-80
2022/07/12 11:06:19;;;;;;;5.03;1.63;;;24.70;64.40;;;;;;4806595;29;20047;-80
2022/07/12 11:08:56;;;;;;;4.85;1.70;;;24.40;61.50;;;;;;4804308;29;20059;-81
2022/07/12 11:11:29;;;;;;;5.35;1.60;;;24.20;61.60;;;;;;4802872;29;20442;-83
2022/07/12 11:13:59;;;;;;;3.40;1.90;;;24.10;62.50;;;;;;4813460;29;20141;-81
2022/07/12 11:16:29;;;;;;;4.72;1.70;;;24.50;62.70;;;;;;4806094;29;20062;-78
2022/07/12 11:18:57;;;;;;;3.80;2.42;;;24.50;61.10;;;;;;4802925;29;20753;-78
2022/07/12 11:21:25;;;;;;;2.55;1.60;;;24.30;61.90;;;;;;4803244;29;20523;-78
2022/07/12 11:23:52;;;;;;;6.63;2.75;;;24.60;61.70;;;;;;4804818;29;20051;-84
2022/07/12 11:26:20;;;;;;;4.75;2.20;;;25.10;63.10;;;;;;4804687;29;20050;-83
2022/07/12 11:28:48;;;;;;;5.15;2.08;;;25.40;61.70;;;;;;4804755;29;20621;-86
2022/07/12 11:31:17;;;;;;;5.88;2.53;;;25.60;60.80;;;;;;4804701;29;20054;-83
2022/07/12 11:33:47;;;;;;;5.85;3.13;;;25.70;61.40;;;;;;4818474;29;20125;-83
2022/07/12 11:36:15;;;;;;;3.13;1.80;;;25.60;61.40;;;;;;4822834;29;20046;-88
2022/07/12 11:38:45;;;;;;;3.83;1.40;;;25.30;59.40;;;;;;4813358;29;20035;-75
2022/07/12 11:41:14;;;;;;;6.03;2.00;;;25.20;59.80;;;;;;4810312;29;20054;-80
2022/07/12 11:43:41;;;;;;;4.57;1.85;;;25.40;61.40;;;;;;4822186;29;20049;-73
2022/07/12 11:46:10;;;;;;;2.47;1.55;;;25.80;60.10;;;;;;4819112;29;20045;-83
2022/07/12 11:48:38;;;;;;;4.63;1.60;;;25.70;58.80;;;;;;4808967;29;20117;-80
2022/07/12 11:51:07;;;;;;;3.25;1.88;;;25.60;59.10;;;;;;4803886;29;20061;-76
2022/07/12 11:53:36;;;;;;;4.28;2.10;;;25.60;59.10;;;;;;4803791;29;20051;-81
2022/07/12 11:56:06;;;;;;;7.07;2.17;;;25.90;60.70;;;;;;4802237;29;20062;-83
2022/07/12 11:58:37;;;;;;;5.87;2.93;;;25.80;59.30;;;;;;4804076;29;20072;-85
2022/07/12 12:01:09;;;;;;;10.27;5.30;;;25.90;60.00;;;;;;4807312;29;20055;-83
2022/07/12 12:03:45;;;;;;;6.60;2.40;;;26.20;59.60;;;;;;4807140;29;20043;-85
2022/07/12 12:06:13;;;;;;;3.28;1.50;;;26.20;58.70;;;;;;4807186;29;20112;-83
2022/07/12 12:08:42;;;;;;;3.88;1.60;;;25.70;59.20;;;;;;4807045;29;20061;-84
2022/07/12 12:11:09;;;;;;;3.97;2.30;;;25.50;58.20;;;;;;4807060;29;20179;-78
2022/07/12 12:13:37;;;;;;;3.20;1.85;;;25.60;59.00;;;;;;4813740;29;20488;-78
2022/07/12 12:16:05;;;;;;;4.47;1.70;;;25.30;59.20;;;;;;4824570;29;20053;-85
2022/07/12 12:18:40;;;;;;;3.47;1.92;;;25.30;59.00;;;;;;4812316;29;20122;-82
2022/07/12 12:21:11;;;;;;;5.20;2.10;;;25.30;59.30;;;;;;4806864;29;20134;-81
2022/07/12 12:23:42;;;;;;;7.03;1.90;;;25.70;60.60;;;;;;4806523;29;20184;-78
2022/07/12 12:26:20;;;;;;;5.05;1.73;;;25.50;59.60;;;;;;4807306;29;20046;-80
2022/07/12 12:28:53;;;;;;;4.65;2.03;;;26.00;60.70;;;;;;4806787;29;20050;-78
2022/07/12 12:31:23;;;;;;;8.90;4.32;;;26.60;58.70;;;;;;4805649;29;20061;-79
2022/07/12 12:34:01;;;;;;;12.02;2.95;;;27.00;59.10;;;;;;4805611;29;20043;-78
2022/07/12 12:36:35;;;;;;;8.95;2.45;;;27.10;58.60;;;;;;4805968;29;20055;-78
2022/07/12 12:39:05;;;;;;;10.02;4.38;;;27.00;57.90;;;;;;4790470;29;20066;-79
2022/07/12 12:41:43;;;;;;;6.50;3.25;;;27.30;58.90;;;;;;4805066;29;20050;-79
2022/07/12 12:44:16;;;;;;;5.07;2.33;;;27.60;58.50;;;;;;4806789;29;20399;-83
2022/07/12 12:46:48;;;;;;;5.20;2.92;;;27.50;57.70;;;;;;4806517;29;20054;-77
2022/07/12 12:49:15;;;;;;;6.25;2.45;;;27.60;57.20;;;;;;4806376;29;20412;-77
2022/07/12 12:51:58;;;;;;;4.75;2.20;;;27.50;56.90;;;;;;4807414;29;20672;-81
2022/07/12 12:54:36;;;;;;;4.32;2.20;;;27.60;57.00;;;;;;4814581;29;20373;-79
2022/07/12 12:57:05;;;;;;;4.75;1.90;;;27.50;57.20;;;;;;4813973;29;20125;-78
2022/07/12 12:59:33;;;;;;;4.18;2.10;;;27.60;57.00;;;;;;4814990;29;20369;-78
2022/07/12 13:02:01;;;;;;;6.78;3.25;;;27.60;56.90;;;;;;4813201;29;20073;-79
2022/07/12 13:04:30;;;;;;;6.03;2.30;;;27.50;56.30;;;;;;4814665;29;20046;-77
2022/07/12 13:06:58;;;;;;;8.55;2.17;;;27.30;57.40;;;;;;4815864;29;20394;-79